sensor_id;sensor_type;location;lat;lon;timestamp;P1;durP1;ratioP1;P2;durP2;ratioP2
17283;SDS011;8760;52.248;20.952;2023-06-22T00:00:48;34.03;;;30.52;;
17283;SDS011;8760;52.248;20.952;2023-06-22T00:03:16;34.42;;;31.40;;
17283;SDS011;8760;52.248;20.952;2023-06-22T00:05:44;34.08;;;31.00;;
17283;SDS011;8760;52.248;20.952;2023-06-22T00:08:11;34.60;;;31.08;;
17283;SDS011;8760;52.248;20.952;2023-06-22T00:10:39;32.75;;;29.65;;
17283;SDS011;8760;52.248;20.952;2023-06-22T00:13:06;33.50;;;30.40;;
17283;SDS011;8760;52.248;20.952;2023-06-22T00:15:35;34.13;;;31.02;;
17283;SDS011;8760;52.248;20.952;2023-06-22T00:18:04;34.15;;;31.02;;
17283;SDS011;8760;52.248;20.952;2023-06-22T00:20:31;35.00;;;31.52;;
17283;SDS011;8760;52.248;20.952;2023-06-22T00:23:02;34.80;;;31.42;;
17283;SDS011;8760;52.248;20.952;2023-06-22T00:25:33;34.58;;;31.13;;
17283;SDS011;8760;52.248;20.952;2023-06-22T00:28:01;35.13;;;31.63;;
17283;SDS011;8760;52.248;20.952;2023-06-22T00:30:28;34.55;;;31.15;;
17283;SDS011;8760;52.248;20.952;2023-06-22T00:32:56;34.30;;;31.02;;
17283;SDS011;8760;52.248;20.952;2023-06-22T00:35:24;36.78;;;33.08;;
17283;SDS011;8760;52.248;20.952;2023-06-22T00:37:53;37.03;;;32.67;;
17283;SDS011;8760;52.248;20.952;2023-06-22T00:40:25;35.55;;;32.13;;
17283;SDS011;8760;52.248;20.952;2023-06-22T00:42:53;36.03;;;32.22;;
17283;SDS011;8760;52.248;20.952;2023-06-22T00:45:20;35.53;;;32.13;;
17283;SDS011;8760;52.248;20.952;2023-06-22T00:47:48;35.03;;;31.75;;
17283;SDS011;8760;52.248;20.952;2023-06-22T00:50:17;35.88;;;32.03;;
17283;SDS011;8760;52.248;20.952;2023-06-22T00:52:47;35.58;;;32.17;;
17283;SDS011;8760;52.248;20.952;2023-06-22T00:55:17;34.78;;;31.27;;
17283;SDS011;8760;52.248;20.952;2023-06-22T00:57:45;35.92;;;32.53;;
17283;SDS011;8760;52.248;20.952;2023-06-22T01:00:13;34.70;;;31.40;;
17283;SDS011;8760;52.248;20.952;2023-06-22T01:02:42;36.17;;;32.78;;
17283;SDS011;8760;52.248;20.952;2023-06-22T01:05:10;35.25;;;31.90;;
17283;SDS011;8760;52.248;20.952;2023-06-22T01:07:42;35.25;;;31.65;;
17283;SDS011;8760;52.248;20.952;2023-06-22T01:10:19;35.08;;;31.63;;
17283;SDS011;8760;52.248;20.952;2023-06-22T01:12:52;35.33;;;32.00;;
17283;SDS011;8760;52.248;20.952;2023-06-22T01:15:25;35.72;;;32.28;;
17283;SDS011;8760;52.248;20.952;2023-06-22T01:17:57;36.97;;;33.05;;
17283;SDS011;8760;52.248;20.952;2023-06-22T01:20:25;35.75;;;32.33;;
17283;SDS011;8760;52.248;20.952;2023-06-22T01:23:00;36.65;;;32.75;;
17283;SDS011;8760;52.248;20.952;2023-06-22T01:25:36;36.03;;;31.60;;
17283;SDS011;8760;52.248;20.952;2023-06-22T01:28:17;38.58;;;34.55;;
17283;SDS011;8760;52.248;20.952;2023-06-22T01:30:53;35.55;;;32.03;;
17283;SDS011;8760;52.248;20.952;2023-06-22T01:33:28;35.53;;;32.03;;
17283;SDS011;8760;52.248;20.952;2023-06-22T01:35:57;35.55;;;32.13;;
17283;SDS011;8760;52.248;20.952;2023-06-22T01:38:25;37.63;;;32.83;;
17283;SDS011;8760;52.248;20.952;2023-06-22T01:40:54;36.03;;;32.53;;
17283;SDS011;8760;52.248;20.952;2023-06-22T01:43:21;36.60;;;32.90;;
17283;SDS011;8760;52.248;20.952;2023-06-22T01:45:50;35.28;;;31.98;;
17283;SDS011;8760;52.248;20.952;2023-06-22T01:48:20;35.35;;;32.17;;
17283;SDS011;8760;52.248;20.952;2023-06-22T01:50:47;36.45;;;32.80;;
17283;SDS011;8760;52.248;20.952;2023-06-22T01:53:14;35.92;;;32.33;;
17283;SDS011;8760;52.248;20.952;2023-06-22T01:55:41;35.78;;;32.25;;
17283;SDS011;8760;52.248;20.952;2023-06-22T01:58:08;36.10;;;32.58;;
17283;SDS011;8760;52.248;20.952;2023-06-22T02:00:36;35.40;;;32.10;;
17283;SDS011;8760;52.248;20.952;2023-06-22T02:03:08;34.83;;;31.40;;
17283;SDS011;8760;52.248;20.952;2023-06-22T02:05:42;33.90;;;30.58;;
17283;SDS011;8760;52.248;20.952;2023-06-22T02:08:17;34.92;;;31.58;;
17283;SDS011;8760;52.248;20.952;2023-06-22T02:10:47;36.42;;;32.85;;
17283;SDS011;8760;52.248;20.952;2023-06-22T02:13:15;36.08;;;32.35;;
17283;SDS011;8760;52.248;20.952;2023-06-22T02:15:43;38.60;;;34.80;;
17283;SDS011;8760;52.248;20.952;2023-06-22T02:18:12;39.47;;;35.25;;
17283;SDS011;8760;52.248;20.952;2023-06-22T02:20:39;41.65;;;37.55;;
17283;SDS011;8760;52.248;20.952;2023-06-22T02:23:07;41.50;;;37.60;;
17283;SDS011;8760;52.248;20.952;2023-06-22T02:25:34;42.97;;;38.83;;
17283;SDS011;8760;52.248;20.952;2023-06-22T02:28:01;43.30;;;39.15;;
17283;SDS011;8760;52.248;20.952;2023-06-22T02:30:29;45.90;;;41.42;;
17283;SDS011;8760;52.248;20.952;2023-06-22T02:32:56;47.53;;;42.63;;
17283;SDS011;8760;52.248;20.952;2023-06-22T02:35:26;49.55;;;44.42;;
17283;SDS011;8760;52.248;20.952;2023-06-22T02:37:56;46.42;;;41.75;;
17283;SDS011;8760;52.248;20.952;2023-06-22T02:40:24;47.03;;;42.40;;
17283;SDS011;8760;52.248;20.952;2023-06-22T02:42:51;47.72;;;42.95;;
17283;SDS011;8760;52.248;20.952;2023-06-22T02:45:18;48.13;;;43.03;;
17283;SDS011;8760;52.248;20.952;2023-06-22T02:47:45;48.33;;;43.30;;
17283;SDS011;8760;52.248;20.952;2023-06-22T02:50:13;49.15;;;44.17;;
17283;SDS011;8760;52.248;20.952;2023-06-22T02:52:41;49.63;;;44.28;;
17283;SDS011;8760;52.248;20.952;2023-06-22T02:55:08;49.05;;;43.90;;
17283;SDS011;8760;52.248;20.952;2023-06-22T02:57:35;50.05;;;44.67;;
17283;SDS011;8760;52.248;20.952;2023-06-22T03:00:02;49.97;;;44.88;;
17283;SDS011;8760;52.248;20.952;2023-06-22T03:02:41;49.60;;;44.30;;
17283;SDS011;8760;52.248;20.952;2023-06-22T03:05:08;53.25;;;45.88;;
17283;SDS011;8760;52.248;20.952;2023-06-22T03:07:38;55.53;;;49.40;;
17283;SDS011;8760;52.248;20.952;2023-06-22T03:10:07;52.35;;;46.95;;
17283;SDS011;8760;52.248;20.952;2023-06-22T03:12:35;57.53;;;51.05;;
17283;SDS011;8760;52.248;20.952;2023-06-22T03:15:02;52.38;;;46.70;;
17283;SDS011;8760;52.248;20.952;2023-06-22T03:17:30;54.60;;;48.75;;
17283;SDS011;8760;52.248;20.952;2023-06-22T03:19:57;52.22;;;45.65;;
17283;SDS011;8760;52.248;20.952;2023-06-22T03:22:24;53.22;;;47.67;;
17283;SDS011;8760;52.248;20.952;2023-06-22T03:24:51;51.13;;;45.65;;
17283;SDS011;8760;52.248;20.952;2023-06-22T03:27:19;51.25;;;45.90;;
17283;SDS011;8760;52.248;20.952;2023-06-22T03:29:46;52.03;;;46.53;;
17283;SDS011;8760;52.248;20.952;2023-06-22T03:32:13;51.15;;;45.85;;
17283;SDS011;8760;52.248;20.952;2023-06-22T03:34:40;49.33;;;44.22;;
17283;SDS011;8760;52.248;20.952;2023-06-22T03:37:12;48.63;;;43.47;;
17283;SDS011;8760;52.248;20.952;2023-06-22T03:39:39;50.63;;;45.33;;
17283;SDS011;8760;52.248;20.952;2023-06-22T03:42:06;49.58;;;42.85;;
17283;SDS011;8760;52.248;20.952;2023-06-22T03:44:34;50.20;;;42.88;;
17283;SDS011;8760;52.248;20.952;2023-06-22T03:47:01;46.55;;;41.75;;
17283;SDS011;8760;52.248;20.952;2023-06-22T03:49:29;49.33;;;43.97;;
17283;SDS011;8760;52.248;20.952;2023-06-22T03:51:56;48.47;;;43.30;;
17283;SDS011;8760;52.248;20.952;2023-06-22T03:54:23;48.28;;;43.15;;
17283;SDS011;8760;52.248;20.952;2023-06-22T03:56:49;49.38;;;42.42;;
17283;SDS011;8760;52.248;20.952;2023-06-22T03:59:16;46.25;;;41.75;;
17283;SDS011;8760;52.248;20.952;2023-06-22T04:01:45;47.15;;;42.20;;
17283;SDS011;8760;52.248;20.952;2023-06-22T04:04:12;45.15;;;40.53;;
17283;SDS011;8760;52.248;20.952;2023-06-22T04:06:39;44.42;;;39.85;;
17283;SDS011;8760;52.248;20.952;2023-06-22T04:09:06;45.25;;;40.25;;
17283;SDS011;8760;52.248;20.952;2023-06-22T04:11:32;42.58;;;38.25;;
17283;SDS011;8760;52.248;20.952;2023-06-22T04:13:59;43.08;;;38.58;;
17283;SDS011;8760;52.248;20.952;2023-06-22T04:16:26;43.40;;;38.70;;
17283;SDS011;8760;52.248;20.952;2023-06-22T04:18:55;41.17;;;37.17;;
17283;SDS011;8760;52.248;20.952;2023-06-22T04:21:21;43.65;;;37.13;;
17283;SDS011;8760;52.248;20.952;2023-06-22T04:23:48;40.28;;;36.17;;
17283;SDS011;8760;52.248;20.952;2023-06-22T04:26:15;41.42;;;37.03;;
17283;SDS011;8760;52.248;20.952;2023-06-22T04:28:42;39.65;;;35.65;;
17283;SDS011;8760;52.248;20.952;2023-06-22T04:31:15;37.58;;;33.75;;
17283;SDS011;8760;52.248;20.952;2023-06-22T04:33:42;37.85;;;34.05;;
17283;SDS011;8760;52.248;20.952;2023-06-22T04:36:10;37.95;;;33.95;;
17283;SDS011;8760;52.248;20.952;2023-06-22T04:38:40;44.58;;;39.15;;
17283;SDS011;8760;52.248;20.952;2023-06-22T04:41:07;47.22;;;39.70;;
17283;SDS011;8760;52.248;20.952;2023-06-22T04:43:39;39.30;;;35.13;;
17283;SDS011;8760;52.248;20.952;2023-06-22T04:46:06;40.45;;;36.08;;
17283;SDS011;8760;52.248;20.952;2023-06-22T04:48:33;37.97;;;34.08;;
17283;SDS011;8760;52.248;20.952;2023-06-22T04:51:00;35.50;;;31.90;;
17283;SDS011;8760;52.248;20.952;2023-06-22T04:53:30;37.63;;;32.60;;
17283;SDS011;8760;52.248;20.952;2023-06-22T04:55:57;37.47;;;33.65;;
17283;SDS011;8760;52.248;20.952;2023-06-22T04:58:24;42.03;;;33.60;;
17283;SDS011;8760;52.248;20.952;2023-06-22T05:00:52;37.72;;;33.75;;
17283;SDS011;8760;52.248;20.952;2023-06-22T05:03:22;36.67;;;32.63;;
17283;SDS011;8760;52.248;20.952;2023-06-22T05:05:50;34.30;;;30.70;;
17283;SDS011;8760;52.248;20.952;2023-06-22T05:08:18;35.13;;;31.63;;
17283;SDS011;8760;52.248;20.952;2023-06-22T05:10:47;34.40;;;30.90;;
17283;SDS011;8760;52.248;20.952;2023-06-22T05:13:14;35.58;;;32.03;;
17283;SDS011;8760;52.248;20.952;2023-06-22T05:15:40;34.10;;;30.60;;
17283;SDS011;8760;52.248;20.952;2023-06-22T05:18:07;33.25;;;29.85;;
17283;SDS011;8760;52.248;20.952;2023-06-22T05:20:34;33.35;;;29.83;;
17283;SDS011;8760;52.248;20.952;2023-06-22T05:23:01;33.75;;;30.00;;
17283;SDS011;8760;52.248;20.952;2023-06-22T05:25:28;31.92;;;28.63;;
17283;SDS011;8760;52.248;20.952;2023-06-22T05:27:59;33.95;;;28.73;;
17283;SDS011;8760;52.248;20.952;2023-06-22T05:30:25;31.33;;;28.10;;
17283;SDS011;8760;52.248;20.952;2023-06-22T05:32:53;29.08;;;26.35;;
17283;SDS011;8760;52.248;20.952;2023-06-22T05:35:20;29.98;;;27.05;;
17283;SDS011;8760;52.248;20.952;2023-06-22T05:37:47;31.27;;;28.13;;
17283;SDS011;8760;52.248;20.952;2023-06-22T05:40:14;29.77;;;26.67;;
17283;SDS011;8760;52.248;20.952;2023-06-22T05:42:41;29.45;;;26.52;;
17283;SDS011;8760;52.248;20.952;2023-06-22T05:45:10;28.75;;;25.35;;
17283;SDS011;8760;52.248;20.952;2023-06-22T05:47:37;28.05;;;24.38;;
17283;SDS011;8760;52.248;20.952;2023-06-22T05:50:04;26.88;;;24.08;;
17283;SDS011;8760;52.248;20.952;2023-06-22T05:52:33;26.38;;;23.67;;
17283;SDS011;8760;52.248;20.952;2023-06-22T05:55:01;26.63;;;23.70;;
17283;SDS011;8760;52.248;20.952;2023-06-22T05:57:30;28.27;;;25.40;;
17283;SDS011;8760;52.248;20.952;2023-06-22T05:59:56;25.67;;;23.27;;
17283;SDS011;8760;52.248;20.952;2023-06-22T06:02:25;26.90;;;24.15;;
17283;SDS011;8760;52.248;20.952;2023-06-22T06:04:52;26.50;;;23.70;;
17283;SDS011;8760;52.248;20.952;2023-06-22T06:07:19;27.98;;;25.08;;
17283;SDS011;8760;52.248;20.952;2023-06-22T06:09:46;26.73;;;22.55;;
17283;SDS011;8760;52.248;20.952;2023-06-22T06:12:14;26.88;;;23.48;;
17283;SDS011;8760;52.248;20.952;2023-06-22T06:14:41;25.33;;;22.77;;
17283;SDS011;8760;52.248;20.952;2023-06-22T06:17:07;23.88;;;21.42;;
17283;SDS011;8760;52.248;20.952;2023-06-22T06:19:36;24.98;;;22.17;;
17283;SDS011;8760;52.248;20.952;2023-06-22T06:22:03;25.73;;;21.92;;
17283;SDS011;8760;52.248;20.952;2023-06-22T06:24:30;24.90;;;22.20;;
17283;SDS011;8760;52.248;20.952;2023-06-22T06:26:57;23.42;;;20.60;;
17283;SDS011;8760;52.248;20.952;2023-06-22T06:29:23;22.30;;;20.08;;
17283;SDS011;8760;52.248;20.952;2023-06-22T06:31:50;24.98;;;20.17;;
17283;SDS011;8760;52.248;20.952;2023-06-22T06:34:17;21.73;;;19.58;;
17283;SDS011;8760;52.248;20.952;2023-06-22T06:36:46;45.10;;;19.25;;
17283;SDS011;8760;52.248;20.952;2023-06-22T06:39:13;20.73;;;18.58;;
17283;SDS011;8760;52.248;20.952;2023-06-22T06:41:41;24.38;;;17.65;;
17283;SDS011;8760;52.248;20.952;2023-06-22T06:44:07;19.02;;;17.20;;
17283;SDS011;8760;52.248;20.952;2023-06-22T06:46:34;19.00;;;17.00;;
17283;SDS011;8760;52.248;20.952;2023-06-22T06:49:02;19.27;;;16.75;;
17283;SDS011;8760;52.248;20.952;2023-06-22T06:51:28;19.30;;;17.45;;
17283;SDS011;8760;52.248;20.952;2023-06-22T06:53:57;17.38;;;15.50;;
17283;SDS011;8760;52.248;20.952;2023-06-22T06:56:24;16.65;;;15.02;;
17283;SDS011;8760;52.248;20.952;2023-06-22T06:58:51;17.38;;;15.57;;
17283;SDS011;8760;52.248;20.952;2023-06-22T07:01:17;18.63;;;16.67;;
17283;SDS011;8760;52.248;20.952;2023-06-22T07:03:44;18.00;;;15.95;;
17283;SDS011;8760;52.248;20.952;2023-06-22T07:06:12;17.17;;;15.18;;
17283;SDS011;8760;52.248;20.952;2023-06-22T07:08:41;18.17;;;16.08;;
17283;SDS011;8760;52.248;20.952;2023-06-22T07:11:09;17.55;;;15.55;;
17283;SDS011;8760;52.248;20.952;2023-06-22T07:13:36;16.63;;;13.50;;
17283;SDS011;8760;52.248;20.952;2023-06-22T07:16:03;16.65;;;14.88;;
17283;SDS011;8760;52.248;20.952;2023-06-22T07:18:30;15.65;;;12.13;;
17283;SDS011;8760;52.248;20.952;2023-06-22T07:20:57;12.55;;;11.32;;
17283;SDS011;8760;52.248;20.952;2023-06-22T07:23:24;11.38;;;9.93;;
17283;SDS011;8760;52.248;20.952;2023-06-22T07:25:51;14.85;;;10.13;;
17283;SDS011;8760;52.248;20.952;2023-06-22T07:28:20;10.27;;;9.13;;
17283;SDS011;8760;52.248;20.952;2023-06-22T07:30:46;10.52;;;9.43;;
17283;SDS011;8760;52.248;20.952;2023-06-22T07:33:13;11.88;;;8.93;;
17283;SDS011;8760;52.248;20.952;2023-06-22T07:35:40;11.00;;;8.77;;
17283;SDS011;8760;52.248;20.952;2023-06-22T07:38:07;9.55;;;7.95;;
17283;SDS011;8760;52.248;20.952;2023-06-22T07:40:34;8.90;;;7.57;;
17283;SDS011;8760;52.248;20.952;2023-06-22T07:43:01;7.90;;;7.10;;
17283;SDS011;8760;52.248;20.952;2023-06-22T07:45:29;7.05;;;6.43;;
17283;SDS011;8760;52.248;20.952;2023-06-22T07:47:58;10.57;;;7.10;;
17283;SDS011;8760;52.248;20.952;2023-06-22T07:50:25;7.82;;;6.53;;
17283;SDS011;8760;52.248;20.952;2023-06-22T07:52:52;11.80;;;6.50;;
17283;SDS011;8760;52.248;20.952;2023-06-22T07:55:19;7.70;;;5.78;;
17283;SDS011;8760;52.248;20.952;2023-06-22T07:57:46;9.13;;;5.63;;
17283;SDS011;8760;52.248;20.952;2023-06-22T08:00:17;6.18;;;5.25;;
17283;SDS011;8760;52.248;20.952;2023-06-22T08:02:45;8.70;;;6.50;;
17283;SDS011;8760;52.248;20.952;2023-06-22T08:05:13;10.75;;;5.97;;
17283;SDS011;8760;52.248;20.952;2023-06-22T08:07:41;10.40;;;5.97;;
17283;SDS011;8760;52.248;20.952;2023-06-22T08:10:10;7.47;;;5.82;;
17283;SDS011;8760;52.248;20.952;2023-06-22T08:12:37;7.10;;;5.40;;
17283;SDS011;8760;52.248;20.952;2023-06-22T08:15:05;7.45;;;4.38;;
17283;SDS011;8760;52.248;20.952;2023-06-22T08:17:34;7.05;;;4.72;;
17283;SDS011;8760;52.248;20.952;2023-06-22T08:20:04;5.47;;;4.80;;
17283;SDS011;8760;52.248;20.952;2023-06-22T08:22:34;5.55;;;4.85;;
17283;SDS011;8760;52.248;20.952;2023-06-22T08:25:01;6.97;;;4.80;;
17283;SDS011;8760;52.248;20.952;2023-06-22T08:27:29;8.00;;;4.90;;
17283;SDS011;8760;52.248;20.952;2023-06-22T08:29:57;6.68;;;4.43;;
17283;SDS011;8760;52.248;20.952;2023-06-22T08:32:24;8.70;;;5.18;;
17283;SDS011;8760;52.248;20.952;2023-06-22T08:34:51;7.80;;;4.90;;
17283;SDS011;8760;52.248;20.952;2023-06-22T08:37:19;7.65;;;5.10;;
17283;SDS011;8760;52.248;20.952;2023-06-22T08:39:55;9.10;;;5.00;;
17283;SDS011;8760;52.248;20.952;2023-06-22T08:42:22;5.93;;;4.18;;
17283;SDS011;8760;52.248;20.952;2023-06-22T08:44:50;5.78;;;4.53;;
17283;SDS011;8760;52.248;20.952;2023-06-22T08:47:18;6.07;;;4.57;;
17283;SDS011;8760;52.248;20.952;2023-06-22T08:49:45;6.93;;;4.07;;
17283;SDS011;8760;52.248;20.952;2023-06-22T08:52:12;7.03;;;5.65;;
17283;SDS011;8760;52.248;20.952;2023-06-22T08:54:40;5.55;;;3.58;;
17283;SDS011;8760;52.248;20.952;2023-06-22T08:57:07;5.05;;;3.83;;
17283;SDS011;8760;52.248;20.952;2023-06-22T08:59:34;5.05;;;3.58;;
17283;SDS011;8760;52.248;20.952;2023-06-22T09:02:01;4.63;;;4.00;;
17283;SDS011;8760;52.248;20.952;2023-06-22T09:04:28;4.85;;;3.40;;
17283;SDS011;8760;52.248;20.952;2023-06-22T09:06:55;10.23;;;4.75;;
17283;SDS011;8760;52.248;20.952;2023-06-22T09:09:21;7.32;;;4.13;;
17283;SDS011;8760;52.248;20.952;2023-06-22T09:11:50;4.90;;;4.07;;
17283;SDS011;8760;52.248;20.952;2023-06-22T09:14:17;4.68;;;4.28;;
17283;SDS011;8760;52.248;20.952;2023-06-22T09:16:43;5.45;;;4.13;;
17283;SDS011;8760;52.248;20.952;2023-06-22T09:19:10;6.30;;;4.35;;
17283;SDS011;8760;52.248;20.952;2023-06-22T09:21:37;5.35;;;4.22;;
17283;SDS011;8760;52.248;20.952;2023-06-22T09:24:05;6.55;;;4.70;;
17283;SDS011;8760;52.248;20.952;2023-06-22T09:26:33;8.13;;;4.50;;
17283;SDS011;8760;52.248;20.952;2023-06-22T09:29:01;6.82;;;4.65;;
17283;SDS011;8760;52.248;20.952;2023-06-22T09:31:31;5.60;;;3.85;;
17283;SDS011;8760;52.248;20.952;2023-06-22T09:33:58;9.80;;;4.40;;
17283;SDS011;8760;52.248;20.952;2023-06-22T09:36:24;18.52;;;3.88;;
17283;SDS011;8760;52.248;20.952;2023-06-22T09:38:51;5.03;;;3.47;;
17283;SDS011;8760;52.248;20.952;2023-06-22T09:41:20;6.43;;;3.60;;
17283;SDS011;8760;52.248;20.952;2023-06-22T09:43:47;9.18;;;2.97;;
17283;SDS011;8760;52.248;20.952;2023-06-22T09:46:16;12.20;;;6.43;;
17283;SDS011;8760;52.248;20.952;2023-06-22T09:48:43;8.45;;;4.30;;
17283;SDS011;8760;52.248;20.952;2023-06-22T09:51:11;11.10;;;3.58;;
17283;SDS011;8760;52.248;20.952;2023-06-22T09:53:38;5.78;;;3.67;;
17283;SDS011;8760;52.248;20.952;2023-06-22T09:56:05;6.43;;;3.58;;
17283;SDS011;8760;52.248;20.952;2023-06-22T09:58:32;6.80;;;3.80;;
17283;SDS011;8760;52.248;20.952;2023-06-22T10:00:59;7.50;;;4.57;;
17283;SDS011;8760;52.248;20.952;2023-06-22T10:03:27;7.75;;;4.43;;
17283;SDS011;8760;52.248;20.952;2023-06-22T10:05:54;8.65;;;4.15;;
17283;SDS011;8760;52.248;20.952;2023-06-22T10:08:21;5.53;;;4.10;;
17283;SDS011;8760;52.248;20.952;2023-06-22T10:10:48;7.57;;;3.83;;
17283;SDS011;8760;52.248;20.952;2023-06-22T10:13:15;5.45;;;3.58;;
17283;SDS011;8760;52.248;20.952;2023-06-22T10:15:42;4.38;;;3.70;;
17283;SDS011;8760;52.248;20.952;2023-06-22T10:18:10;8.57;;;4.13;;
17283;SDS011;8760;52.248;20.952;2023-06-22T10:20:38;4.90;;;4.40;;
17283;SDS011;8760;52.248;20.952;2023-06-22T10:23:05;6.05;;;4.00;;
17283;SDS011;8760;52.248;20.952;2023-06-22T10:25:32;7.47;;;3.63;;
17283;SDS011;8760;52.248;20.952;2023-06-22T10:27:59;4.93;;;3.47;;
17283;SDS011;8760;52.248;20.952;2023-06-22T10:30:26;4.07;;;3.67;;
17283;SDS011;8760;52.248;20.952;2023-06-22T10:32:54;5.95;;;3.53;;
17283;SDS011;8760;52.248;20.952;2023-06-22T10:35:21;4.30;;;3.38;;
17283;SDS011;8760;52.248;20.952;2023-06-22T10:37:49;6.78;;;3.75;;
17283;SDS011;8760;52.248;20.952;2023-06-22T10:40:16;12.55;;;4.40;;
17283;SDS011;8760;52.248;20.952;2023-06-22T10:42:43;4.00;;;3.70;;
17283;SDS011;8760;52.248;20.952;2023-06-22T10:45:11;10.38;;;4.40;;
17283;SDS011;8760;52.248;20.952;2023-06-22T10:47:38;7.57;;;4.05;;
17283;SDS011;8760;52.248;20.952;2023-06-22T10:50:07;15.73;;;5.07;;
17283;SDS011;8760;52.248;20.952;2023-06-22T10:52:34;6.78;;;4.00;;
17283;SDS011;8760;52.248;20.952;2023-06-22T10:55:03;6.18;;;3.83;;
17283;SDS011;8760;52.248;20.952;2023-06-22T10:57:30;5.13;;;4.60;;
17283;SDS011;8760;52.248;20.952;2023-06-22T10:59:57;17.77;;;4.65;;
17283;SDS011;8760;52.248;20.952;2023-06-22T11:02:24;6.05;;;4.05;;
17283;SDS011;8760;52.248;20.952;2023-06-22T11:04:53;4.78;;;4.05;;
17283;SDS011;8760;52.248;20.952;2023-06-22T11:07:22;5.80;;;4.22;;
17283;SDS011;8760;52.248;20.952;2023-06-22T11:09:49;8.50;;;4.40;;
17283;SDS011;8760;52.248;20.952;2023-06-22T11:12:18;9.75;;;4.40;;
17283;SDS011;8760;52.248;20.952;2023-06-22T11:14:45;7.60;;;4.22;;
17283;SDS011;8760;52.248;20.952;2023-06-22T11:17:11;6.45;;;4.28;;
17283;SDS011;8760;52.248;20.952;2023-06-22T11:19:38;7.28;;;4.38;;
17283;SDS011;8760;52.248;20.952;2023-06-22T11:22:05;8.02;;;4.30;;
17283;SDS011;8760;52.248;20.952;2023-06-22T11:24:32;5.45;;;3.83;;
17283;SDS011;8760;52.248;20.952;2023-06-22T11:26:59;5.25;;;4.32;;
17283;SDS011;8760;52.248;20.952;2023-06-22T11:29:27;11.07;;;4.22;;
17283;SDS011;8760;52.248;20.952;2023-06-22T11:31:55;7.13;;;4.20;;
17283;SDS011;8760;52.248;20.952;2023-06-22T11:34:22;6.68;;;4.03;;
17283;SDS011;8760;52.248;20.952;2023-06-22T11:36:49;5.50;;;3.80;;
17283;SDS011;8760;52.248;20.952;2023-06-22T11:39:16;6.93;;;4.73;;
17283;SDS011;8760;52.248;20.952;2023-06-22T11:41:43;5.28;;;3.42;;
17283;SDS011;8760;52.248;20.952;2023-06-22T11:44:10;5.18;;;4.00;;
17283;SDS011;8760;52.248;20.952;2023-06-22T11:46:38;4.82;;;3.38;;
17283;SDS011;8760;52.248;20.952;2023-06-22T11:49:05;5.28;;;3.80;;
17283;SDS011;8760;52.248;20.952;2023-06-22T11:51:32;5.22;;;3.53;;
17283;SDS011;8760;52.248;20.952;2023-06-22T11:53:59;5.28;;;4.18;;
17283;SDS011;8760;52.248;20.952;2023-06-22T11:56:27;5.80;;;4.53;;
17283;SDS011;8760;52.248;20.952;2023-06-22T11:58:54;6.28;;;3.83;;
17283;SDS011;8760;52.248;20.952;2023-06-22T12:01:21;7.15;;;4.25;;
17283;SDS011;8760;52.248;20.952;2023-06-22T12:03:49;8.27;;;4.15;;
17283;SDS011;8760;52.248;20.952;2023-06-22T12:06:16;5.22;;;4.30;;
17283;SDS011;8760;52.248;20.952;2023-06-22T12:08:43;6.68;;;4.40;;
17283;SDS011;8760;52.248;20.952;2023-06-22T12:11:10;7.40;;;5.07;;
17283;SDS011;8760;52.248;20.952;2023-06-22T12:13:37;7.95;;;5.03;;
17283;SDS011;8760;52.248;20.952;2023-06-22T12:16:04;7.15;;;4.78;;
17283;SDS011;8760;52.248;20.952;2023-06-22T12:18:32;7.10;;;4.10;;
17283;SDS011;8760;52.248;20.952;2023-06-22T12:21:00;4.68;;;4.28;;
17283;SDS011;8760;52.248;20.952;2023-06-22T12:23:27;5.43;;;4.40;;
17283;SDS011;8760;52.248;20.952;2023-06-22T12:25:54;4.93;;;4.50;;
17283;SDS011;8760;52.248;20.952;2023-06-22T12:28:21;6.32;;;4.15;;
17283;SDS011;8760;52.248;20.952;2023-06-22T12:30:48;5.85;;;4.50;;
17283;SDS011;8760;52.248;20.952;2023-06-22T12:33:15;6.65;;;4.22;;
17283;SDS011;8760;52.248;20.952;2023-06-22T12:35:43;4.70;;;3.90;;
17283;SDS011;8760;52.248;20.952;2023-06-22T12:38:12;4.88;;;3.65;;
17283;SDS011;8760;52.248;20.952;2023-06-22T12:40:39;5.60;;;4.10;;
17283;SDS011;8760;52.248;20.952;2023-06-22T12:43:06;4.57;;;4.18;;
17283;SDS011;8760;52.248;20.952;2023-06-22T12:45:33;5.18;;;4.30;;
17283;SDS011;8760;52.248;20.952;2023-06-22T12:48:00;4.88;;;4.45;;
17283;SDS011;8760;52.248;20.952;2023-06-22T12:50:27;7.05;;;4.65;;
17283;SDS011;8760;52.248;20.952;2023-06-22T12:52:54;4.85;;;4.20;;
17283;SDS011;8760;52.248;20.952;2023-06-22T12:55:22;4.95;;;4.38;;
17283;SDS011;8760;52.248;20.952;2023-06-22T12:57:49;7.18;;;4.55;;
17283;SDS011;8760;52.248;20.952;2023-06-22T13:00:16;4.25;;;3.72;;
17283;SDS011;8760;52.248;20.952;2023-06-22T13:02:43;7.70;;;5.18;;
17283;SDS011;8760;52.248;20.952;2023-06-22T13:05:10;4.95;;;4.22;;
17283;SDS011;8760;52.248;20.952;2023-06-22T13:07:37;5.40;;;4.47;;
17283;SDS011;8760;52.248;20.952;2023-06-22T13:10:05;5.55;;;4.93;;
17283;SDS011;8760;52.248;20.952;2023-06-22T13:12:34;5.18;;;4.63;;
17283;SDS011;8760;52.248;20.952;2023-06-22T13:15:01;5.75;;;4.85;;
17283;SDS011;8760;52.248;20.952;2023-06-22T13:17:28;9.10;;;5.50;;
17283;SDS011;8760;52.248;20.952;2023-06-22T13:19:55;6.22;;;4.88;;
17283;SDS011;8760;52.248;20.952;2023-06-22T13:22:26;16.90;;;5.57;;
17283;SDS011;8760;52.248;20.952;2023-06-22T13:24:55;5.45;;;4.55;;
17283;SDS011;8760;52.248;20.952;2023-06-22T13:27:22;7.55;;;4.80;;
17283;SDS011;8760;52.248;20.952;2023-06-22T13:29:50;5.50;;;4.57;;
17283;SDS011;8760;52.248;20.952;2023-06-22T13:32:18;5.13;;;4.60;;
17283;SDS011;8760;52.248;20.952;2023-06-22T13:34:45;5.93;;;4.30;;
17283;SDS011;8760;52.248;20.952;2023-06-22T13:37:12;5.07;;;4.53;;
17283;SDS011;8760;52.248;20.952;2023-06-22T13:39:39;5.20;;;4.53;;
17283;SDS011;8760;52.248;20.952;2023-06-22T13:42:06;4.50;;;4.10;;
17283;SDS011;8760;52.248;20.952;2023-06-22T13:44:34;7.15;;;4.38;;
17283;SDS011;8760;52.248;20.952;2023-06-22T13:47:02;8.02;;;4.65;;
17283;SDS011;8760;52.248;20.952;2023-06-22T13:49:30;6.70;;;4.40;;
17283;SDS011;8760;52.248;20.952;2023-06-22T13:51:57;6.45;;;4.80;;
17283;SDS011;8760;52.248;20.952;2023-06-22T13:54:24;10.82;;;5.07;;
17283;SDS011;8760;52.248;20.952;2023-06-22T13:56:51;6.05;;;4.72;;
17283;SDS011;8760;52.248;20.952;2023-06-22T13:59:18;9.20;;;4.55;;
17283;SDS011;8760;52.248;20.952;2023-06-22T14:01:45;5.03;;;4.25;;
17283;SDS011;8760;52.248;20.952;2023-06-22T14:04:14;5.47;;;4.97;;
17283;SDS011;8760;52.248;20.952;2023-06-22T14:06:40;5.22;;;4.50;;
17283;SDS011;8760;52.248;20.952;2023-06-22T14:09:07;6.30;;;4.90;;
17283;SDS011;8760;52.248;20.952;2023-06-22T14:11:34;5.57;;;4.88;;
17283;SDS011;8760;52.248;20.952;2023-06-22T14:14:02;8.02;;;5.13;;
17283;SDS011;8760;52.248;20.952;2023-06-22T14:16:29;5.80;;;5.20;;
17283;SDS011;8760;52.248;20.952;2023-06-22T14:18:56;6.32;;;3.95;;
17283;SDS011;8760;52.248;20.952;2023-06-22T14:21:24;8.40;;;4.20;;
17283;SDS011;8760;52.248;20.952;2023-06-22T14:23:51;5.50;;;5.00;;
17283;SDS011;8760;52.248;20.952;2023-06-22T14:26:18;6.30;;;5.07;;
17283;SDS011;8760;52.248;20.952;2023-06-22T14:28:45;5.55;;;4.85;;
17283;SDS011;8760;52.248;20.952;2023-06-22T14:31:13;5.60;;;5.10;;
17283;SDS011;8760;52.248;20.952;2023-06-22T14:33:40;6.95;;;5.22;;
17283;SDS011;8760;52.248;20.952;2023-06-22T14:36:13;5.20;;;4.80;;